sensor_id;sensor_type;location;lat;lon;timestamp;pressure;altitude;pressure_sealevel;temperature;humidity
73338;BME280;61575;49.908;35.556;2023-05-21T00:00:11;99675.72;;;14.08;46.86
73338;BME280;61575;49.908;35.556;2023-05-21T00:03:13;99677.97;;;14.05;46.88
73338;BME280;61575;49.908;35.556;2023-05-21T00:06:16;99684.13;;;13.99;47.04
73338;BME280;61575;49.908;35.556;2023-05-21T00:09:21;99673.88;;;13.94;47.23
73338;BME280;61575;49.908;35.556;2023-05-21T00:12:23;99675.28;;;13.90;47.29
73338;BME280;61575;49.908;35.556;2023-05-21T00:15:25;99669.22;;;13.88;47.25
73338;BME280;61575;49.908;35.556;2023-05-21T00:18:27;99671.94;;;13.88;47.14
73338;BME280;61575;49.908;35.556;2023-05-21T00:21:29;99664.66;;;13.89;47.06
73338;BME280;61575;49.908;35.556;2023-05-21T00:24:32;99663.56;;;13.83;47.21
73338;BME280;61575;49.908;35.556;2023-05-21T00:27:34;99669.34;;;13.80;47.32
73338;BME280;61575;49.908;35.556;2023-05-21T00:30:35;99663.56;;;13.83;47.32
73338;BME280;61575;49.908;35.556;2023-05-21T00:33:37;99661.69;;;13.84;47.50
73338;BME280;61575;49.908;35.556;2023-05-21T00:36:39;99652.38;;;13.86;47.29
73338;BME280;61575;49.908;35.556;2023-05-21T00:39:41;99651.81;;;13.91;47.17
73338;BME280;61575;49.908;35.556;2023-05-21T00:42:43;99656.94;;;13.86;47.11
73338;BME280;61575;49.908;35.556;2023-05-21T00:45:48;99650.34;;;13.88;47.10
73338;BME280;61575;49.908;35.556;2023-05-21T00:48:51;99653.69;;;13.90;47.09
73338;BME280;61575;49.908;35.556;2023-05-21T00:51:53;99653.88;;;13.89;47.34
73338;BME280;61575;49.908;35.556;2023-05-21T00:54:55;99655.53;;;13.90;47.18
73338;BME280;61575;49.908;35.556;2023-05-21T00:57:57;99656.94;;;13.86;47.25
73338;BME280;61575;49.908;35.556;2023-05-21T01:00:59;99653.78;;;13.82;47.32
73338;BME280;61575;49.908;35.556;2023-05-21T01:04:07;99652.75;;;13.83;47.45
73338;BME280;61575;49.908;35.556;2023-05-21T01:07:09;99649.59;;;13.79;47.40
73338;BME280;61575;49.908;35.556;2023-05-21T01:10:11;99643.00;;;13.82;47.25
73338;BME280;61575;49.908;35.556;2023-05-21T01:13:14;99640.00;;;13.77;47.51
73338;BME280;61575;49.908;35.556;2023-05-21T01:16:17;99626.06;;;13.73;47.37
73338;BME280;61575;49.908;35.556;2023-05-21T01:19:20;99625.41;;;13.71;47.51
73338;BME280;61575;49.908;35.556;2023-05-21T01:22:23;99621.88;;;13.71;47.52
73338;BME280;61575;49.908;35.556;2023-05-21T01:25:26;99613.69;;;13.64;47.77
73338;BME280;61575;49.908;35.556;2023-05-21T01:28:28;99623.66;;;13.64;47.73
73338;BME280;61575;49.908;35.556;2023-05-21T01:35:14;99625.41;;;13.57;48.11
73338;BME280;61575;49.908;35.556;2023-05-21T01:38:59;99624.75;;;13.55;48.27
73338;BME280;61575;49.908;35.556;2023-05-21T01:42:05;99624.47;;;13.50;48.54
73338;BME280;61575;49.908;35.556;2023-05-21T01:45:10;99618.16;;;13.42;49.04
73338;BME280;61575;49.908;35.556;2023-05-21T01:48:13;99613.38;;;13.30;49.68
73338;BME280;61575;49.908;35.556;2023-05-21T01:51:18;99604.91;;;13.18;49.94
73338;BME280;61575;49.908;35.556;2023-05-21T01:54:20;99606.84;;;13.09;50.48
73338;BME280;61575;49.908;35.556;2023-05-21T01:57:22;99612.97;;;13.03;51.07
73338;BME280;61575;49.908;35.556;2023-05-21T02:00:25;99614.19;;;13.01;51.32
73338;BME280;61575;49.908;35.556;2023-05-21T02:03:29;99610.53;;;12.94;51.67
73338;BME280;61575;49.908;35.556;2023-05-21T02:06:32;99610.63;;;12.86;52.18
73338;BME280;61575;49.908;35.556;2023-05-21T02:09:36;99610.97;;;12.82;53.06
73338;BME280;61575;49.908;35.556;2023-05-21T02:12:38;99608.25;;;12.68;53.30
73338;BME280;61575;49.908;35.556;2023-05-21T02:15:40;99608.66;;;12.57;53.80
73338;BME280;61575;49.908;35.556;2023-05-21T02:18:42;99613.41;;;12.55;54.08
73338;BME280;61575;49.908;35.556;2023-05-21T02:21:44;99623.88;;;12.49;54.35
73338;BME280;61575;49.908;35.556;2023-05-21T02:24:46;99626.75;;;12.48;54.98
73338;BME280;61575;49.908;35.556;2023-05-21T02:27:48;99626.09;;;12.46;54.71
73338;BME280;61575;49.908;35.556;2023-05-21T02:30:55;99626.09;;;12.46;54.87
73338;BME280;61575;49.908;35.556;2023-05-21T02:33:56;99618.66;;;12.48;54.39
73338;BME280;61575;49.908;35.556;2023-05-21T02:36:58;99621.66;;;12.53;54.27
73338;BME280;61575;49.908;35.556;2023-05-21T02:40:02;99624.00;;;12.56;54.15
73338;BME280;61575;49.908;35.556;2023-05-21T02:43:05;99621.13;;;12.58;54.27
73338;BME280;61575;49.908;35.556;2023-05-21T02:46:07;99627.16;;;12.60;53.83
73338;BME280;61575;49.908;35.556;2023-05-21T02:49:10;99625.97;;;12.62;54.10
73338;BME280;61575;49.908;35.556;2023-05-21T02:52:13;99617.22;;;12.60;54.24
73338;BME280;61575;49.908;35.556;2023-05-21T02:55:15;99609.25;;;12.67;54.10
73338;BME280;61575;49.908;35.556;2023-05-21T02:58:17;99610.41;;;12.72;54.11
73338;BME280;61575;49.908;35.556;2023-05-21T03:01:19;99615.41;;;12.75;53.88
73338;BME280;61575;49.908;35.556;2023-05-21T03:04:21;99617.22;;;12.83;53.78
73338;BME280;61575;49.908;35.556;2023-05-21T03:07:23;99621.94;;;12.81;53.79
73338;BME280;61575;49.908;35.556;2023-05-21T03:10:25;99613.78;;;12.89;53.58
73338;BME280;61575;49.908;35.556;2023-05-21T03:13:27;99615.75;;;12.95;53.71
73338;BME280;61575;49.908;35.556;2023-05-21T03:16:29;99614.47;;;13.06;53.46
73338;BME280;61575;49.908;35.556;2023-05-21T03:19:35;99611.31;;;13.17;52.92
73338;BME280;61575;49.908;35.556;2023-05-21T03:22:38;99612.91;;;13.26;52.84
73338;BME280;61575;49.908;35.556;2023-05-21T03:25:40;99617.41;;;13.34;52.77
73338;BME280;61575;49.908;35.556;2023-05-21T03:28:43;99621.22;;;13.39;52.51
73338;BME280;61575;49.908;35.556;2023-05-21T03:31:45;99623.47;;;13.51;52.47
73338;BME280;61575;49.908;35.556;2023-05-21T03:34:48;99623.19;;;13.60;52.46
73338;BME280;61575;49.908;35.556;2023-05-21T03:37:52;99622.16;;;13.76;52.16
73338;BME280;61575;49.908;35.556;2023-05-21T03:40:54;99621.38;;;13.82;52.07
73338;BME280;61575;49.908;35.556;2023-05-21T03:43:56;99619.78;;;14.02;51.92
73338;BME280;61575;49.908;35.556;2023-05-21T03:47:02;99629.44;;;14.11;51.48
73338;BME280;61575;49.908;35.556;2023-05-21T03:50:08;99623.53;;;14.23;51.20
73338;BME280;61575;49.908;35.556;2023-05-21T03:53:11;99622.00;;;14.35;51.51
73338;BME280;61575;49.908;35.556;2023-05-21T03:56:13;99624.59;;;14.43;51.06
73338;BME280;61575;49.908;35.556;2023-05-21T03:59:15;99626.75;;;14.48;50.94
73338;BME280;61575;49.908;35.556;2023-05-21T04:02:19;99629.59;;;14.46;50.83
73338;BME280;61575;49.908;35.556;2023-05-21T04:05:21;99627.22;;;14.58;50.98
73338;BME280;61575;49.908;35.556;2023-05-21T04:08:23;99615.56;;;14.78;50.43
73338;BME280;61575;49.908;35.556;2023-05-21T04:11:25;99611.56;;;14.96;50.25
73338;BME280;61575;49.908;35.556;2023-05-21T04:14:27;99612.06;;;15.06;49.81
73338;BME280;61575;49.908;35.556;2023-05-21T04:17:29;99612.19;;;15.26;49.63
73338;BME280;61575;49.908;35.556;2023-05-21T04:20:31;99620.16;;;15.34;49.37
73338;BME280;61575;49.908;35.556;2023-05-21T04:23:33;99611.88;;;15.42;49.26
73338;BME280;61575;49.908;35.556;2023-05-21T04:26:43;99608.78;;;15.45;49.04
73338;BME280;61575;49.908;35.556;2023-05-21T04:29:45;99609.66;;;15.52;48.90
73338;BME280;61575;49.908;35.556;2023-05-21T04:32:51;99611.66;;;15.71;48.93
73338;BME280;61575;49.908;35.556;2023-05-21T04:35:54;99610.97;;;16.04;48.35
73338;BME280;61575;49.908;35.556;2023-05-21T04:38:56;99609.59;;;16.28;47.58
73338;BME280;61575;49.908;35.556;2023-05-21T04:41:58;99612.09;;;16.36;47.58
73338;BME280;61575;49.908;35.556;2023-05-21T04:45:00;99607.97;;;16.53;47.42
73338;BME280;61575;49.908;35.556;2023-05-21T04:48:04;99604.47;;;16.66;47.24
73338;BME280;61575;49.908;35.556;2023-05-21T04:51:06;99604.69;;;16.64;47.30
73338;BME280;61575;49.908;35.556;2023-05-21T04:54:08;99609.91;;;16.79;47.19
73338;BME280;61575;49.908;35.556;2023-05-21T04:57:10;99623.25;;;16.87;46.96
73338;BME280;61575;49.908;35.556;2023-05-21T05:00:12;99622.44;;;16.93;46.82
73338;BME280;61575;49.908;35.556;2023-05-21T05:03:16;99616.59;;;17.03;47.11
73338;BME280;61575;49.908;35.556;2023-05-21T05:06:19;99613.44;;;17.19;46.96
73338;BME280;61575;49.908;35.556;2023-05-21T05:09:22;99618.22;;;17.44;46.69
73338;BME280;61575;49.908;35.556;2023-05-21T05:12:26;99609.84;;;17.45;46.49
73338;BME280;61575;49.908;35.556;2023-05-21T05:15:28;99612.59;;;17.39;46.31
73338;BME280;61575;49.908;35.556;2023-05-21T05:18:31;99613.81;;;17.49;46.42
73338;BME280;61575;49.908;35.556;2023-05-21T05:21:34;99617.78;;;17.60;46.25
73338;BME280;61575;49.908;35.556;2023-05-21T05:24:38;99620.91;;;17.70;46.35
73338;BME280;61575;49.908;35.556;2023-05-21T05:27:40;99629.75;;;18.04;46.00
73338;BME280;61575;49.908;35.556;2023-05-21T05:30:42;99628.53;;;18.38;45.51
73338;BME280;61575;49.908;35.556;2023-05-21T05:33:51;99622.88;;;18.77;45.02
73338;BME280;61575;49.908;35.556;2023-05-21T05:36:55;99619.00;;;19.16;44.13
73338;BME280;61575;49.908;35.556;2023-05-21T05:39:58;99619.63;;;19.43;43.35
73338;BME280;61575;49.908;35.556;2023-05-21T05:43:01;99624.41;;;19.66;43.02
73338;BME280;61575;49.908;35.556;2023-05-21T05:46:02;99618.94;;;19.84;42.50
73338;BME280;61575;49.908;35.556;2023-05-21T05:49:05;99623.03;;;20.12;41.84
73338;BME280;61575;49.908;35.556;2023-05-21T05:52:06;99621.00;;;20.37;41.69
73338;BME280;61575;49.908;35.556;2023-05-21T05:55:09;99618.88;;;20.39;40.96
73338;BME280;61575;49.908;35.556;2023-05-21T05:58:12;99620.50;;;20.59;40.91
73338;BME280;61575;49.908;35.556;2023-05-21T06:01:30;99625.31;;;20.86;40.49
73338;BME280;61575;49.908;35.556;2023-05-21T06:04:32;99621.34;;;21.12;40.15
73338;BME280;61575;49.908;35.556;2023-05-21T06:07:36;99630.06;;;20.91;39.72
73338;BME280;61575;49.908;35.556;2023-05-21T06:10:39;99624.22;;;20.76;39.28
73338;BME280;61575;49.908;35.556;2023-05-21T06:13:41;99622.81;;;20.85;40.17
73338;BME280;61575;49.908;35.556;2023-05-21T06:16:43;99625.66;;;20.90;39.91
73338;BME280;61575;49.908;35.556;2023-05-21T06:19:45;99627.44;;;20.84;39.89
73338;BME280;61575;49.908;35.556;2023-05-21T06:22:48;99622.69;;;20.80;39.94
73338;BME280;61575;49.908;35.556;2023-05-21T06:25:50;99618.75;;;21.29;39.78
73338;BME280;61575;49.908;35.556;2023-05-21T06:28:53;99609.81;;;21.80;39.30
73338;BME280;61575;49.908;35.556;2023-05-21T06:31:55;99616.28;;;22.03;38.56
73338;BME280;61575;49.908;35.556;2023-05-21T06:34:56;99612.50;;;22.32;38.27
73338;BME280;61575;49.908;35.556;2023-05-21T06:37:58;99611.41;;;22.45;38.19
73338;BME280;61575;49.908;35.556;2023-05-21T06:41:01;99603.97;;;22.57;37.73
73338;BME280;61575;49.908;35.556;2023-05-21T06:44:20;99615.13;;;22.84;37.33
73338;BME280;61575;49.908;35.556;2023-05-21T06:47:40;99604.66;;;22.81;37.32
73338;BME280;61575;49.908;35.556;2023-05-21T06:50:42;99604.84;;;22.91;37.21
73338;BME280;61575;49.908;35.556;2023-05-21T06:53:44;99602.34;;;23.06;36.07
73338;BME280;61575;49.908;35.556;2023-05-21T06:56:47;99589.19;;;23.20;36.62
73338;BME280;61575;49.908;35.556;2023-05-21T06:59:49;99600.28;;;23.47;36.51
73338;BME280;61575;49.908;35.556;2023-05-21T07:02:51;99596.25;;;23.55;36.47
73338;BME280;61575;49.908;35.556;2023-05-21T07:05:53;99593.03;;;23.80;35.89
73338;BME280;61575;49.908;35.556;2023-05-21T07:08:55;99590.47;;;23.51;36.12
73338;BME280;61575;49.908;35.556;2023-05-21T07:11:57;99602.28;;;23.01;36.50
73338;BME280;61575;49.908;35.556;2023-05-21T07:14:59;99586.22;;;22.60;37.43
73338;BME280;61575;49.908;35.556;2023-05-21T07:18:02;99590.09;;;22.47;37.49
73338;BME280;61575;49.908;35.556;2023-05-21T07:21:04;99588.81;;;22.38;37.93
73338;BME280;61575;49.908;35.556;2023-05-21T07:24:06;99588.38;;;22.29;38.08
73338;BME280;61575;49.908;35.556;2023-05-21T07:27:13;99588.75;;;22.21;38.10
73338;BME280;61575;49.908;35.556;2023-05-21T07:30:27;99579.84;;;22.54;37.96
73338;BME280;61575;49.908;35.556;2023-05-21T07:33:29;99577.19;;;22.59;36.94
73338;BME280;61575;49.908;35.556;2023-05-21T07:36:31;99577.53;;;22.34;36.82
73338;BME280;61575;49.908;35.556;2023-05-21T07:39:36;99578.19;;;22.41;37.55
73338;BME280;61575;49.908;35.556;2023-05-21T07:42:39;99577.03;;;22.37;36.95
73338;BME280;61575;49.908;35.556;2023-05-21T07:45:44;99570.00;;;22.41;36.77
73338;BME280;61575;49.908;35.556;2023-05-21T07:48:46;99563.69;;;22.12;36.66
73338;BME280;61575;49.908;35.556;2023-05-21T07:51:49;99573.09;;;22.16;37.13
73338;BME280;61575;49.908;35.556;2023-05-21T07:54:51;99581.38;;;21.93;37.29
73338;BME280;61575;49.908;35.556;2023-05-21T07:57:56;99588.53;;;21.82;37.76
73338;BME280;61575;49.908;35.556;2023-05-21T08:01:02;99580.25;;;22.06;37.88
73338;BME280;61575;49.908;35.556;2023-05-21T08:04:05;99578.66;;;22.22;37.62
73338;BME280;61575;49.908;35.556;2023-05-21T08:07:10;99580.47;;;22.44;37.54
73338;BME280;61575;49.908;35.556;2023-05-21T08:10:13;99581.09;;;22.97;37.37
73338;BME280;61575;49.908;35.556;2023-05-21T08:13:18;99594.22;;;23.11;36.38
73338;BME280;61575;49.908;35.556;2023-05-21T08:16:22;99588.41;;;22.91;36.61
73338;BME280;61575;49.908;35.556;2023-05-21T08:19:24;99585.50;;;23.15;36.12
73338;BME280;61575;49.908;35.556;2023-05-21T08:22:26;99590.25;;;23.36;36.23
73338;BME280;61575;49.908;35.556;2023-05-21T08:25:28;99588.03;;;23.55;35.83
73338;BME280;61575;49.908;35.556;2023-05-21T08:28:32;99581.72;;;23.54;35.55
73338;BME280;61575;49.908;35.556;2023-05-21T08:31:36;99593.47;;;23.71;35.11
73338;BME280;61575;49.908;35.556;2023-05-21T08:34:38;99580.75;;;24.04;35.71
73338;BME280;61575;49.908;35.556;2023-05-21T08:38:00;99579.50;;;24.38;34.82
73338;BME280;61575;49.908;35.556;2023-05-21T08:41:27;99585.09;;;24.00;34.65
73338;BME280;61575;49.908;35.556;2023-05-21T08:44:32;99583.19;;;23.62;35.03
73338;BME280;61575;49.908;35.556;2023-05-21T08:47:35;99588.63;;;23.57;35.24
73338;BME280;61575;49.908;35.556;2023-05-21T08:50:39;99583.59;;;22.98;35.09
73338;BME280;61575;49.908;35.556;2023-05-21T08:53:48;99589.75;;;22.89;35.70
73338;BME280;61575;49.908;35.556;2023-05-21T08:56:53;99582.59;;;22.71;34.67
73338;BME280;61575;49.908;35.556;2023-05-21T08:59:56;99588.47;;;22.63;34.92
73338;BME280;61575;49.908;35.556;2023-05-21T09:03:01;99593.53;;;22.71;34.72
73338;BME280;61575;49.908;35.556;2023-05-21T09:06:12;99592.22;;;22.90;35.16
73338;BME280;61575;49.908;35.556;2023-05-21T09:09:28;99585.75;;;23.30;32.58
73338;BME280;61575;49.908;35.556;2023-05-21T09:12:34;99582.81;;;23.53;33.00
73338;BME280;61575;49.908;35.556;2023-05-21T09:15:36;99600.19;;;23.81;32.47
73338;BME280;61575;49.908;35.556;2023-05-21T09:18:39;99602.31;;;23.57;32.30
73338;BME280;61575;49.908;35.556;2023-05-21T09:21:51;99590.31;;;23.41;32.50
73338;BME280;61575;49.908;35.556;2023-05-21T09:24:56;99604.22;;;23.18;33.26
73338;BME280;61575;49.908;35.556;2023-05-21T09:27:58;99604.00;;;22.91;33.47
73338;BME280;61575;49.908;35.556;2023-05-21T09:31:02;99595.44;;;22.54;34.09
73338;BME280;61575;49.908;35.556;2023-05-21T09:34:04;99603.50;;;22.20;36.19
73338;BME280;61575;49.908;35.556;2023-05-21T09:37:06;99601.00;;;21.90;37.49
73338;BME280;61575;49.908;35.556;2023-05-21T09:40:22;99607.69;;;21.59;37.93
73338;BME280;61575;49.908;35.556;2023-05-21T09:43:27;99607.34;;;21.20;38.48
73338;BME280;61575;49.908;35.556;2023-05-21T09:46:39;99622.09;;;20.89;39.26
73338;BME280;61575;49.908;35.556;2023-05-21T09:49:42;99620.84;;;20.62;40.20
73338;BME280;61575;49.908;35.556;2023-05-21T09:52:44;99609.91;;;20.20;39.68
73338;BME280;61575;49.908;35.556;2023-05-21T09:55:47;99624.28;;;20.09;40.27
73338;BME280;61575;49.908;35.556;2023-05-21T09:58:55;99616.94;;;19.91;41.79
73338;BME280;61575;49.908;35.556;2023-05-21T10:01:57;99617.56;;;19.75;44.21
73338;BME280;61575;49.908;35.556;2023-05-21T10:05:01;99618.66;;;19.56;44.15
73338;BME280;61575;49.908;35.556;2023-05-21T10:08:08;99617.94;;;19.42;45.48
73338;BME280;61575;49.908;35.556;2023-05-21T10:11:13;99609.94;;;19.22;46.38
73338;BME280;61575;49.908;35.556;2023-05-21T10:14:22;99617.78;;;19.12;49.02
73338;BME280;61575;49.908;35.556;2023-05-21T10:17:27;99615.06;;;19.12;47.79
73338;BME280;61575;49.908;35.556;2023-05-21T10:20:30;99607.78;;;19.06;47.66
73338;BME280;61575;49.908;35.556;2023-05-21T10:23:35;99619.28;;;19.08;47.72
73338;BME280;61575;49.908;35.556;2023-05-21T10:26:38;99608.22;;;19.03;48.51
73338;BME280;61575;49.908;35.556;2023-05-21T10:29:42;99617.22;;;19.04;49.05
73338;BME280;61575;49.908;35.556;2023-05-21T10:32:46;99613.34;;;18.93;48.56
73338;BME280;61575;49.908;35.556;2023-05-21T10:35:48;99610.00;;;18.91;48.99
73338;BME280;61575;49.908;35.556;2023-05-21T10:38:55;99611.06;;;18.90;49.14
73338;BME280;61575;49.908;35.556;2023-05-21T10:42:13;99611.50;;;18.87;48.99
73338;BME280;61575;49.908;35.556;2023-05-21T10:45:57;99608.09;;;18.67;49.25
73338;BME280;61575;49.908;35.556;2023-05-21T10:49:11;99617.63;;;18.51;49.65
73338;BME280;61575;49.908;35.556;2023-05-21T10:52:45;99610.34;;;18.45;50.09
73338;BME280;61575;49.908;35.556;2023-05-21T11:00:00;99604.38;;;18.23;51.96
73338;BME280;61575;49.908;35.556;2023-05-21T11:02:36;99603.34;;;18.17;52.07
73338;BME280;61575;49.908;35.556;2023-05-21T11:05:40;99601.94;;;18.08;53.69
73338;BME280;61575;49.908;35.556;2023-05-21T11:08:51;99612.84;;;18.02;54.94
73338;BME280;61575;49.908;35.556;2023-05-21T11:11:57;99596.78;;;17.93;55.32
73338;BME280;61575;49.908;35.556;2023-05-21T11:14:59;99607.47;;;17.88;56.45
73338;BME280;61575;49.908;35.556;2023-05-21T11:18:01;99613.09;;;17.87;56.22
73338;BME280;61575;49.908;35.556;2023-05-21T11:21:04;99601.03;;;17.76;56.78
73338;BME280;61575;49.908;35.556;2023-05-21T11:24:06;99608.53;;;17.81;57.59
73338;BME280;61575;49.908;35.556;2023-05-21T11:27:09;99601.41;;;17.86;59.70
73338;BME280;61575;49.908;35.556;2023-05-21T11:30:17;99605.16;;;17.92;58.08
73338;BME280;61575;49.908;35.556;2023-05-21T11:33:20;99608.25;;;17.95;58.75
73338;BME280;61575;49.908;35.556;2023-05-21T11:36:22;99605.31;;;18.04;58.95
73338;BME280;61575;49.908;35.556;2023-05-21T11:39:24;99602.53;;;18.17;59.39
73338;BME280;61575;49.908;35.556;2023-05-21T11:42:39;99608.97;;;18.22;58.90
73338;BME280;61575;49.908;35.556;2023-05-21T11:45:43;99607.00;;;18.36;58.27
73338;BME280;61575;49.908;35.556;2023-05-21T11:48:51;99606.16;;;18.42;57.70
73338;BME280;61575;49.908;35.556;2023-05-21T11:51:53;99604.84;;;18.51;57.93
73338;BME280;61575;49.908;35.556;2023-05-21T11:54:55;99610.53;;;18.50;57.21
73338;BME280;61575;49.908;35.556;2023-05-21T11:57:58;99606.13;;;18.49;57.64
73338;BME280;61575;49.908;35.556;2023-05-21T12:01:01;99605.94;;;18.44;57.04
73338;BME280;61575;49.908;35.556;2023-05-21T12:04:03;99595.69;;;18.46;57.78
73338;BME280;61575;49.908;35.556;2023-05-21T12:07:05;99593.59;;;18.41;60.23
73338;BME280;61575;49.908;35.556;2023-05-21T12:10:09;99597.38;;;18.40;59.07
73338;BME280;61575;49.908;35.556;2023-05-21T12:13:13;99593.84;;;18.33;59.77
73338;BME280;61575;49.908;35.556;2023-05-21T12:16:15;99591.59;;;18.23;59.53
73338;BME280;61575;49.908;35.556;2023-05-21T12:19:17;99588.78;;;18.05;60.51
73338;BME280;61575;49.908;35.556;2023-05-21T12:22:20;99587.53;;;18.01;61.25
73338;BME280;61575;49.908;35.556;2023-05-21T12:25:22;99583.81;;;17.95;62.30
73338;BME280;61575;49.908;35.556;2023-05-21T12:28:24;99583.63;;;17.90;60.30
73338;BME280;61575;49.908;35.556;2023-05-21T12:31:28;99577.59;;;17.82;61.52
73338;BME280;61575;49.908;35.556;2023-05-21T12:34:39;99566.75;;;17.75;63.08
73338;BME280;61575;49.908;35.556;2023-05-21T12:37:42;99570.31;;;17.76;62.96
73338;BME280;61575;49.908;35.556;2023-05-21T12:40:44;99564.28;;;17.67;61.76
73338;BME280;61575;49.908;35.556;2023-05-21T12:43:46;99566.38;;;17.65;62.88
73338;BME280;61575;49.908;35.556;2023-05-21T12:46:48;99569.91;;;17.72;63.61
73338;BME280;61575;49.908;35.556;2023-05-21T12:49:53;99563.41;;;17.80;63.92
73338;BME280;61575;49.908;35.556;2023-05-21T12:52:57;99548.19;;;17.72;62.74
73338;BME280;61575;49.908;35.556;2023-05-21T12:59:13;99543.41;;;17.67;62.31
73338;BME280;61575;49.908;35.556;2023-05-21T13:02:21;99545.69;;;17.71;62.24
73338;BME280;61575;49.908;35.556;2023-05-21T13:05:23;99545.03;;;17.75;61.76
73338;BME280;61575;49.908;35.556;2023-05-21T13:08:25;99542.13;;;17.70;61.54
73338;BME280;61575;49.908;35.556;2023-05-21T13:11:28;99546.69;;;17.76;62.09
73338;BME280;61575;49.908;35.556;2023-05-21T13:14:30;99549.41;;;17.76;62.35
73338;BME280;61575;49.908;35.556;2023-05-21T13:17:33;99538.94;;;17.80;61.65
73338;BME280;61575;49.908;35.556;2023-05-21T13:20:35;99546.47;;;17.78;61.70
73338;BME280;61575;49.908;35.556;2023-05-21T13:23:37;99540.06;;;17.65;61.86
73338;BME280;61575;49.908;35.556;2023-05-21T13:26:39;99541.75;;;17.60;61.63
73338;BME280;61575;49.908;35.556;2023-05-21T13:29:42;99531.09;;;17.58;61.44
73338;BME280;61575;49.908;35.556;2023-05-21T13:32:44;99528.78;;;17.62;61.33
73338;BME280;61575;49.908;35.556;2023-05-21T13:35:46;99523.34;;;17.62;61.74
73338;BME280;61575;49.908;35.556;2023-05-21T13:38:51;99517.06;;;17.68;60.90
73338;BME280;61575;49.908;35.556;2023-05-21T13:41:53;99519.53;;;17.76;60.95
73338;BME280;61575;49.908;35.556;2023-05-21T13:44:55;99508.06;;;17.74;60.96
73338;BME280;61575;49.908;35.556;2023-05-21T13:47:57;99509.88;;;17.87;61.14
73338;BME280;61575;49.908;35.556;2023-05-21T13:50:59;99502.75;;;17.86;60.42
73338;BME280;61575;49.908;35.556;2023-05-21T13:54:01;99502.38;;;17.82;59.95
73338;BME280;61575;49.908;35.556;2023-05-21T13:57:03;99499.84;;;17.87;60.11
73338;BME280;61575;49.908;35.556;2023-05-21T14:00:06;99504.41;;;17.93;59.85
73338;BME280;61575;49.908;35.556;2023-05-21T14:03:10;99503.56;;;17.93;59.24
73338;BME280;61575;49.908;35.556;2023-05-21T14:06:12;99506.06;;;17.94;59.09
73338;BME280;61575;49.908;35.556;2023-05-21T14:09:14;99501.84;;;17.98;59.52
73338;BME280;61575;49.908;35.556;2023-05-21T14:12:16;99500.41;;;17.96;59.07
73338;BME280;61575;49.908;35.556;2023-05-21T14:15:19;99496.41;;;17.98;59.32
73338;BME280;61575;49.908;35.556;2023-05-21T14:18:21;99505.63;;;17.97;59.81
73338;BME280;61575;49.908;35.556;2023-05-21T14:21:24;99503.53;;;17.99;59.71
73338;BME280;61575;49.908;35.556;2023-05-21T14:24:26;99505.34;;;17.74;59.92
73338;BME280;61575;49.908;35.556;2023-05-21T14:27:28;99512.22;;;17.77;59.68
73338;BME280;61575;49.908;35.556;2023-05-21T14:30:30;99515.72;;;17.84;60.12
73338;BME280;61575;49.908;35.556;2023-05-21T14:33:32;99526.13;;;17.93;60.29
73338;BME280;61575;49.908;35.556;2023-05-21T14:36:35;99520.66;;;18.00;60.52
73338;BME280;61575;49.908;35.556;2023-05-21T14:39:37;99518.97;;;18.06;59.86
73338;BME280;61575;49.908;35.556;2023-05-21T14:42:39;99518.13;;;18.05;59.93
73338;BME280;61575;49.908;35.556;2023-05-21T14:45:41;99518.72;;;18.07;60.09
73338;BME280;61575;49.908;35.556;2023-05-21T14:48:43;99524.78;;;18.09;60.25
73338;BME280;61575;49.908;35.556;2023-05-21T14:51:47;99528.50;;;18.15;60.20
73338;BME280;61575;49.908;35.556;2023-05-21T14:54:49;99522.06;;;18.09;60.62
73338;BME280;61575;49.908;35.556;2023-05-21T14:57:51;99522.03;;;18.16;61.04
73338;BME280;61575;49.908;35.556;2023-05-21T15:00:53;99526.81;;;18.20;61.11
73338;BME280;61575;49.908;35.556;2023-05-21T15:03:54;99523.25;;;18.20;60.78
73338;BME280;61575;49.908;35.556;2023-05-21T15:06:59;99524.47;;;18.24;61.12
73338;BME280;61575;49.908;35.556;2023-05-21T15:10:01;99520.88;;;18.30;61.59
73338;BME280;61575;49.908;35.556;2023-05-21T15:13:03;99527.34;;;18.36;61.08
73338;BME280;61575;49.908;35.556;2023-05-21T15:16:05;99536.31;;;18.36;61.08
73338;BME280;61575;49.908;35.556;2023-05-21T15:19:07;99538.66;;;18.32;61.03
73338;BME280;61575;49.908;35.556;2023-05-21T15:22:09;99526.50;;;18.35;60.13
73338;BME280;61575;49.908;35.556;2023-05-21T15:25:11;99528.00;;;18.31;58.70
73338;BME280;61575;49.908;35.556;2023-05-21T15:28:12;99512.28;;;18.33;58.60
73338;BME280;61575;49.908;35.556;2023-05-21T15:31:14;99516.06;;;18.32;58.20
73338;BME280;61575;49.908;35.556;2023-05-21T15:34:16;99510.88;;;18.24;57.04
73338;BME280;61575;49.908;35.556;2023-05-21T15:37:18;99504.56;;;18.30;56.98
73338;BME280;61575;49.908;35.556;2023-05-21T15:40:20;99514.00;;;18.27;57.25
73338;BME280;61575;49.908;35.556;2023-05-21T15:43:24;99514.00;;;18.27;56.79
73338;BME280;61575;49.908;35.556;2023-05-21T15:46:26;99521.09;;;18.28;56.50
73338;BME280;61575;49.908;35.556;2023-05-21T15:49:28;99520.50;;;18.26;56.07
73338;BME280;61575;49.908;35.556;2023-05-21T15:52:30;99525.50;;;18.29;55.81
73338;BME280;61575;49.908;35.556;2023-05-21T15:55:32;99527.16;;;18.30;55.51
73338;BME280;61575;49.908;35.556;2023-05-21T15:58:34;99533.03;;;18.27;55.41
73338;BME280;61575;49.908;35.556;2023-05-21T16:01:36;99542.84;;;18.28;55.56
73338;BME280;61575;49.908;35.556;2023-05-21T16:04:38;99546.00;;;18.25;55.59
73338;BME280;61575;49.908;35.556;2023-05-21T16:07:40;99542.28;;;18.20;56.14
73338;BME280;61575;49.908;35.556;2023-05-21T16:10:42;99546.28;;;18.17;55.65